sensor_id;sensor_type;location;lat;lon;timestamp;pressure;altitude;pressure_sealevel;temperature;humidity
71573;BME280;59408;51.032;9.410;2022-07-11T00:01:23;99708.84;;;12.75;100.00
71573;BME280;59408;51.032;9.410;2022-07-11T00:03:49;99709.41;;;12.68;99.55
71573;BME280;59408;51.032;9.410;2022-07-11T00:06:16;99703.94;;;12.68;99.44
71573;BME280;59408;51.032;9.410;2022-07-11T00:08:43;99715.09;;;12.63;99.09
71573;BME280;59408;51.032;9.410;2022-07-11T00:11:11;99701.53;;;12.67;98.91
71573;BME280;59408;51.032;9.410;2022-07-11T00:13:38;99698.69;;;12.63;99.12
71573;BME280;59408;51.032;9.410;2022-07-11T00:16:05;99697.06;;;12.62;98.39
71573;BME280;59408;51.032;9.410;2022-07-11T00:18:38;99697.53;;;12.64;97.64
71573;BME280;59408;51.032;9.410;2022-07-11T00:21:05;99693.19;;;12.63;98.66
71573;BME280;59408;51.032;9.410;2022-07-11T00:23:31;99691.13;;;12.60;98.78
71573;BME280;59408;51.032;9.410;2022-07-11T00:25:58;99685.19;;;12.58;98.42
71573;BME280;59408;51.032;9.410;2022-07-11T00:28:26;99681.31;;;12.59;98.44
71573;BME280;59408;51.032;9.410;2022-07-11T00:30:53;99681.53;;;12.54;98.39
71573;BME280;59408;51.032;9.410;2022-07-11T00:33:20;99679.38;;;12.60;98.90
71573;BME280;59408;51.032;9.410;2022-07-11T00:35:46;99678.25;;;12.61;98.76
71573;BME280;59408;51.032;9.410;2022-07-11T00:38:13;99680.50;;;12.59;98.36
71573;BME280;59408;51.032;9.410;2022-07-11T00:40:40;99685.19;;;12.58;97.86
71573;BME280;59408;51.032;9.410;2022-07-11T00:43:07;99674.94;;;12.55;98.23
71573;BME280;59408;51.032;9.410;2022-07-11T00:45:35;99677.66;;;12.55;98.69
71573;BME280;59408;51.032;9.410;2022-07-11T00:48:02;99676.88;;;12.55;99.32
71573;BME280;59408;51.032;9.410;2022-07-11T00:50:28;99680.41;;;12.55;99.52
71573;BME280;59408;51.032;9.410;2022-07-11T00:52:55;99677.19;;;12.53;98.55
71573;BME280;59408;51.032;9.410;2022-07-11T00:55:23;99676.06;;;12.54;98.95
71573;BME280;59408;51.032;9.410;2022-07-11T00:57:51;99674.13;;;12.55;99.52
71573;BME280;59408;51.032;9.410;2022-07-11T01:00:19;99677.84;;;12.50;97.86
71573;BME280;59408;51.032;9.410;2022-07-11T01:02:47;99677.66;;;12.55;100.00
71573;BME280;59408;51.032;9.410;2022-07-11T01:05:13;99670.13;;;12.52;98.12
71573;BME280;59408;51.032;9.410;2022-07-11T01:07:40;99669.66;;;12.50;98.84
71573;BME280;59408;51.032;9.410;2022-07-11T01:10:07;99664.63;;;12.52;98.77
71573;BME280;59408;51.032;9.410;2022-07-11T01:12:34;99674.47;;;12.53;99.56
71573;BME280;59408;51.032;9.410;2022-07-11T01:15:02;99659.16;;;12.52;98.84
71573;BME280;59408;51.032;9.410;2022-07-11T01:17:54;99654.97;;;12.55;100.00
71573;BME280;59408;51.032;9.410;2022-07-11T01:20:21;99654.97;;;12.55;99.69
71573;BME280;59408;51.032;9.410;2022-07-11T01:22:52;99655.31;;;12.53;99.45
71573;BME280;59408;51.032;9.410;2022-07-11T01:25:21;99652.56;;;12.53;98.77
71573;BME280;59408;51.032;9.410;2022-07-11T01:27:48;99653.13;;;12.59;100.00
71573;BME280;59408;51.032;9.410;2022-07-11T01:30:15;99650.63;;;12.54;99.82
71573;BME280;59408;51.032;9.410;2022-07-11T01:32:41;99645.50;;;12.52;98.62
71573;BME280;59408;51.032;9.410;2022-07-11T01:35:08;99648.69;;;12.54;99.24
71573;BME280;59408;51.032;9.410;2022-07-11T01:37:35;99651.44;;;12.54;99.68
71573;BME280;59408;51.032;9.410;2022-07-11T01:40:01;99651.75;;;12.53;98.56
71573;BME280;59408;51.032;9.410;2022-07-11T01:42:29;99651.44;;;12.54;97.85
71573;BME280;59408;51.032;9.410;2022-07-11T01:44:56;99646.63;;;12.51;96.94
71573;BME280;59408;51.032;9.410;2022-07-11T01:47:22;99647.88;;;12.54;98.07
71573;BME280;59408;51.032;9.410;2022-07-11T01:49:49;99653.38;;;12.54;98.97
71573;BME280;59408;51.032;9.410;2022-07-11T01:52:16;99647.88;;;12.54;98.62
71573;BME280;59408;51.032;9.410;2022-07-11T01:54:42;99651.44;;;12.54;98.65
71573;BME280;59408;51.032;9.410;2022-07-11T01:57:09;99654.81;;;12.51;97.81
71573;BME280;59408;51.032;9.410;2022-07-11T01:59:37;99653.69;;;12.52;96.83
71573;BME280;59408;51.032;9.410;2022-07-11T02:02:04;99654.03;;;12.51;96.99
71573;BME280;59408;51.032;9.410;2022-07-11T02:04:31;99647.75;;;12.50;99.62
71573;BME280;59408;51.032;9.410;2022-07-11T02:06:57;99656.19;;;12.45;97.68
71573;BME280;59408;51.032;9.410;2022-07-11T02:09:24;99640.09;;;12.43;97.85
71573;BME280;59408;51.032;9.410;2022-07-11T02:11:51;99645.25;;;12.45;97.60
71573;BME280;59408;51.032;9.410;2022-07-11T02:14:17;99637.84;;;12.45;97.79
71573;BME280;59408;51.032;9.410;2022-07-11T02:16:45;99634.63;;;12.43;98.09
71573;BME280;59408;51.032;9.410;2022-07-11T02:19:12;99638.50;;;12.42;98.96
71573;BME280;59408;51.032;9.410;2022-07-11T02:21:39;99637.34;;;12.43;99.61
71573;BME280;59408;51.032;9.410;2022-07-11T02:24:05;99636.88;;;12.41;98.50
71573;BME280;59408;51.032;9.410;2022-07-11T02:26:32;99637.69;;;12.42;98.66
71573;BME280;59408;51.032;9.410;2022-07-11T02:28:59;99651.38;;;12.42;98.06
71573;BME280;59408;51.032;9.410;2022-07-11T02:31:26;99643.63;;;12.44;98.58
71573;BME280;59408;51.032;9.410;2022-07-11T02:33:54;99643.97;;;12.42;98.62
71573;BME280;59408;51.032;9.410;2022-07-11T02:36:21;99645.00;;;12.38;97.69
71573;BME280;59408;51.032;9.410;2022-07-11T02:38:47;99636.41;;;12.39;98.32
71573;BME280;59408;51.032;9.410;2022-07-11T02:41:14;99633.34;;;12.41;99.11
71573;BME280;59408;51.032;9.410;2022-07-11T02:43:41;99637.34;;;12.43;99.37
71573;BME280;59408;51.032;9.410;2022-07-11T02:46:08;99632.56;;;12.40;99.82
71573;BME280;59408;51.032;9.410;2022-07-11T02:48:35;99634.81;;;12.38;99.06
71573;BME280;59408;51.032;9.410;2022-07-11T02:51:03;99630.94;;;12.39;99.41
71573;BME280;59408;51.032;9.410;2022-07-11T02:53:32;99634.47;;;12.40;99.53
71573;BME280;59408;51.032;9.410;2022-07-11T02:56:04;99630.63;;;12.41;100.00
71573;BME280;59408;51.032;9.410;2022-07-11T02:58:36;99624.34;;;12.40;100.00
71573;BME280;59408;51.032;9.410;2022-07-11T03:01:05;99627.09;;;12.40;100.00
71573;BME280;59408;51.032;9.410;2022-07-11T03:03:32;99627.56;;;12.42;99.98
71573;BME280;59408;51.032;9.410;2022-07-11T03:05:58;99629.16;;;12.43;99.69
71573;BME280;59408;51.032;9.410;2022-07-11T03:08:26;99623.34;;;12.45;99.60
71573;BME280;59408;51.032;9.410;2022-07-11T03:10:53;99620.13;;;12.43;99.58
71573;BME280;59408;51.032;9.410;2022-07-11T03:13:20;99624.66;;;12.39;99.58
71573;BME280;59408;51.032;9.410;2022-07-11T03:15:46;99616.34;;;12.35;99.59
71573;BME280;59408;51.032;9.410;2022-07-11T03:18:13;99627.31;;;12.35;100.00
71573;BME280;59408;51.032;9.410;2022-07-11T03:20:40;99627.31;;;12.35;100.00
71573;BME280;59408;51.032;9.410;2022-07-11T03:23:06;99622.63;;;12.36;100.00
71573;BME280;59408;51.032;9.410;2022-07-11T03:25:34;99630.16;;;12.39;100.00
71573;BME280;59408;51.032;9.410;2022-07-11T03:28:01;99631.75;;;12.40;100.00
71573;BME280;59408;51.032;9.410;2022-07-11T03:30:27;99629.81;;;12.40;100.00
71573;BME280;59408;51.032;9.410;2022-07-11T03:32:54;99627.09;;;12.40;100.00
71573;BME280;59408;51.032;9.410;2022-07-11T03:35:20;99630.63;;;12.41;100.00
71573;BME280;59408;51.032;9.410;2022-07-11T03:37:47;99635.28;;;12.40;100.00
71573;BME280;59408;51.032;9.410;2022-07-11T03:40:14;99630.94;;;12.39;100.00
71573;BME280;59408;51.032;9.410;2022-07-11T03:42:42;99631.09;;;12.43;100.00
71573;BME280;59408;51.032;9.410;2022-07-11T03:45:08;99628.69;;;12.41;100.00
71573;BME280;59408;51.032;9.410;2022-07-11T03:47:35;99632.88;;;12.39;100.00
71573;BME280;59408;51.032;9.410;2022-07-11T03:50:02;99627.78;;;12.37;100.00
71573;BME280;59408;51.032;9.410;2022-07-11T03:52:29;99626.28;;;12.40;100.00
71573;BME280;59408;51.032;9.410;2022-07-11T03:54:55;99627.78;;;12.37;100.00
71573;BME280;59408;51.032;9.410;2022-07-11T03:57:22;99639.16;;;12.39;100.00
71573;BME280;59408;51.032;9.410;2022-07-11T03:59:50;99632.06;;;12.38;100.00
71573;BME280;59408;51.032;9.410;2022-07-11T04:02:17;99631.16;;;12.34;100.00
71573;BME280;59408;51.032;9.410;2022-07-11T04:04:43;99630.16;;;12.39;100.00
71573;BME280;59408;51.032;9.410;2022-07-11T04:07:10;99631.75;;;12.40;100.00
71573;BME280;59408;51.032;9.410;2022-07-11T04:09:37;99626.16;;;12.36;100.00
71573;BME280;59408;51.032;9.410;2022-07-11T04:12:04;99631.63;;;12.36;100.00
71573;BME280;59408;51.032;9.410;2022-07-11T04:14:31;99626.59;;;12.38;100.00
71573;BME280;59408;51.032;9.410;2022-07-11T04:16:59;99626.16;;;12.36;100.00
71573;BME280;59408;51.032;9.410;2022-07-11T04:19:26;99634.22;;;12.33;100.00
71573;BME280;59408;51.032;9.410;2022-07-11T04:21:52;99638.09;;;12.32;100.00
71573;BME280;59408;51.032;9.410;2022-07-11T04:24:19;99637.78;;;12.33;100.00
71573;BME280;59408;51.032;9.410;2022-07-11T04:26:46;99644.03;;;12.34;100.00
71573;BME280;59408;51.032;9.410;2022-07-11T04:29:12;99638.34;;;12.39;100.00
71573;BME280;59408;51.032;9.410;2022-07-11T04:31:39;99644.75;;;12.43;100.00
71573;BME280;59408;51.032;9.410;2022-07-11T04:34:07;99632.69;;;12.44;100.00
71573;BME280;59408;51.032;9.410;2022-07-11T04:36:34;99640.25;;;12.47;100.00
71573;BME280;59408;51.032;9.410;2022-07-11T04:39:00;99639.53;;;12.50;100.00
71573;BME280;59408;51.032;9.410;2022-07-11T04:41:27;99637.59;;;12.51;100.00
71573;BME280;59408;51.032;9.410;2022-07-11T04:43:54;99641.28;;;12.55;100.00
71573;BME280;59408;51.032;9.410;2022-07-11T04:46:20;99646.28;;;12.53;100.00
71573;BME280;59408;51.032;9.410;2022-07-11T04:48:47;99644.81;;;12.55;100.00
71573;BME280;59408;51.032;9.410;2022-07-11T04:51:15;99650.75;;;12.57;100.00
71573;BME280;59408;51.032;9.410;2022-07-11T04:53:41;99647.56;;;12.55;100.00
71573;BME280;59408;51.032;9.410;2022-07-11T04:56:09;99639.47;;;12.59;100.00
71573;BME280;59408;51.032;9.410;2022-07-11T04:58:36;99647.00;;;12.62;100.00
71573;BME280;59408;51.032;9.410;2022-07-11T05:01:03;99642.44;;;12.66;100.00
71573;BME280;59408;51.032;9.410;2022-07-11T05:03:29;99642.91;;;12.68;100.00
71573;BME280;59408;51.032;9.410;2022-07-11T05:05:56;99646.13;;;12.70;100.00
71573;BME280;59408;51.032;9.410;2022-07-11T05:08:24;99657.28;;;12.65;99.95
71573;BME280;59408;51.032;9.410;2022-07-11T05:10:51;99654.56;;;12.65;99.21
71573;BME280;59408;51.032;9.410;2022-07-11T05:13:17;99645.78;;;12.71;99.82
71573;BME280;59408;51.032;9.410;2022-07-11T05:15:44;99653.31;;;12.74;99.83
71573;BME280;59408;51.032;9.410;2022-07-11T05:18:10;99652.53;;;12.74;99.11
71573;BME280;59408;51.032;9.410;2022-07-11T05:20:37;99648.91;;;12.82;99.85
71573;BME280;59408;51.032;9.410;2022-07-11T05:23:04;99654.59;;;12.89;99.04
71573;BME280;59408;51.032;9.410;2022-07-11T05:25:32;99654.50;;;12.98;99.49
71573;BME280;59408;51.032;9.410;2022-07-11T05:27:59;99656.13;;;12.99;97.19
71573;BME280;59408;51.032;9.410;2022-07-11T05:30:25;99670.03;;;13.06;97.46
71573;BME280;59408;51.032;9.410;2022-07-11T05:32:52;99671.88;;;13.14;98.08
71573;BME280;59408;51.032;9.410;2022-07-11T05:35:19;99675.41;;;13.14;98.04
71573;BME280;59408;51.032;9.410;2022-07-11T05:37:45;99685.09;;;13.12;96.27
71573;BME280;59408;51.032;9.410;2022-07-11T05:40:12;99675.84;;;13.04;94.56
71573;BME280;59408;51.032;9.410;2022-07-11T05:42:44;99679.53;;;13.08;96.52
71573;BME280;59408;51.032;9.410;2022-07-11T05:45:11;99678.97;;;13.15;96.90
71573;BME280;59408;51.032;9.410;2022-07-11T05:47:38;99683.53;;;13.23;95.41
71573;BME280;59408;51.032;9.410;2022-07-11T05:50:05;99678.75;;;13.32;95.24
71573;BME280;59408;51.032;9.410;2022-07-11T05:52:33;99681.53;;;13.44;95.60
71573;BME280;59408;51.032;9.410;2022-07-11T05:54:59;99683.03;;;13.54;94.40
71573;BME280;59408;51.032;9.410;2022-07-11T05:57:26;99680.50;;;13.61;94.59
71573;BME280;59408;51.032;9.410;2022-07-11T05:59:54;99681.66;;;13.60;94.60
71573;BME280;59408;51.032;9.410;2022-07-11T06:02:21;99684.97;;;13.66;94.56
71573;BME280;59408;51.032;9.410;2022-07-11T06:04:48;99684.84;;;13.62;93.08
71573;BME280;59408;51.032;9.410;2022-07-11T06:07:14;99685.88;;;13.70;93.96
71573;BME280;59408;51.032;9.410;2022-07-11T06:09:41;99681.78;;;13.64;92.06
71573;BME280;59408;51.032;9.410;2022-07-11T06:12:08;99690.22;;;13.71;94.15
71573;BME280;59408;51.032;9.410;2022-07-11T06:14:34;99682.44;;;13.60;93.14
71573;BME280;59408;51.032;9.410;2022-07-11T06:17:03;99689.66;;;13.65;93.32
71573;BME280;59408;51.032;9.410;2022-07-11T06:19:29;99679.25;;;13.83;94.31
71573;BME280;59408;51.032;9.410;2022-07-11T06:21:56;99679.47;;;13.90;94.57
71573;BME280;59408;51.032;9.410;2022-07-11T06:24:23;99679.00;;;13.88;91.25
71573;BME280;59408;51.032;9.410;2022-07-11T06:26:49;99687.44;;;13.95;91.26
71573;BME280;59408;51.032;9.410;2022-07-11T06:29:16;99690.91;;;13.92;91.70
71573;BME280;59408;51.032;9.410;2022-07-11T06:31:42;99689.03;;;13.96;91.78
71573;BME280;59408;51.032;9.410;2022-07-11T06:34:10;99682.41;;;13.97;91.08
71573;BME280;59408;51.032;9.410;2022-07-11T06:36:37;99686.41;;;14.00;92.07
71573;BME280;59408;51.032;9.410;2022-07-11T06:39:04;99689.50;;;14.10;92.47
71573;BME280;59408;51.032;9.410;2022-07-11T06:41:30;99687.78;;;14.06;92.30
71573;BME280;59408;51.032;9.410;2022-07-11T06:43:57;99687.78;;;14.06;92.55
71573;BME280;59408;51.032;9.410;2022-07-11T06:46:23;99685.03;;;14.06;92.15
71573;BME280;59408;51.032;9.410;2022-07-11T06:48:50;99685.72;;;14.03;91.66
71573;BME280;59408;51.032;9.410;2022-07-11T06:51:18;99686.97;;;14.05;90.90
71573;BME280;59408;51.032;9.410;2022-07-11T06:53:45;99692.66;;;14.24;91.43
71573;BME280;59408;51.032;9.410;2022-07-11T06:56:12;99685.41;;;14.32;90.92
71573;BME280;59408;51.032;9.410;2022-07-11T06:58:38;99686.19;;;14.45;90.42
71573;BME280;59408;51.032;9.410;2022-07-11T07:01:06;99686.94;;;14.57;89.93
71573;BME280;59408;51.032;9.410;2022-07-11T07:03:33;99683.97;;;14.50;87.77
71573;BME280;59408;51.032;9.410;2022-07-11T07:06:01;99682.22;;;14.70;87.81
71573;BME280;59408;51.032;9.410;2022-07-11T07:08:29;99679.97;;;14.88;88.13
71573;BME280;59408;51.032;9.410;2022-07-11T07:10:57;99686.59;;;14.87;88.63
71573;BME280;59408;51.032;9.410;2022-07-11T07:13:30;99692.50;;;14.73;87.64
71573;BME280;59408;51.032;9.410;2022-07-11T07:15:57;99686.91;;;14.69;86.66
71573;BME280;59408;51.032;9.410;2022-07-11T07:18:24;99693.09;;;14.66;89.16
71573;BME280;59408;51.032;9.410;2022-07-11T07:20:51;99697.25;;;14.60;87.84
71573;BME280;59408;51.032;9.410;2022-07-11T07:23:18;99696.09;;;14.61;89.10
71573;BME280;59408;51.032;9.410;2022-07-11T07:25:46;99702.19;;;14.55;88.67
71573;BME280;59408;51.032;9.410;2022-07-11T07:28:13;99709.63;;;14.42;87.12
71573;BME280;59408;51.032;9.410;2022-07-11T07:30:40;99707.09;;;14.49;88.83
71573;BME280;59408;51.032;9.410;2022-07-11T07:33:06;99695.31;;;14.49;88.87
71573;BME280;59408;51.032;9.410;2022-07-11T07:35:33;99706.88;;;14.42;87.70
71573;BME280;59408;51.032;9.410;2022-07-11T07:38:00;99707.19;;;14.65;89.43
71573;BME280;59408;51.032;9.410;2022-07-11T07:40:26;99703.94;;;14.75;88.50
71573;BME280;59408;51.032;9.410;2022-07-11T07:42:55;99707.84;;;14.74;87.62
71573;BME280;59408;51.032;9.410;2022-07-11T07:45:22;99709.06;;;14.77;88.92
71573;BME280;59408;51.032;9.410;2022-07-11T07:47:49;99712.16;;;14.75;89.14
71573;BME280;59408;51.032;9.410;2022-07-11T07:50:16;99710.31;;;14.79;87.97
71573;BME280;59408;51.032;9.410;2022-07-11T07:52:42;99701.06;;;14.84;89.45
71573;BME280;59408;51.032;9.410;2022-07-11T07:55:10;99713.13;;;14.67;87.63
71573;BME280;59408;51.032;9.410;2022-07-11T07:57:36;99707.78;;;14.58;89.51
71573;BME280;59408;51.032;9.410;2022-07-11T08:00:05;99713.63;;;14.57;91.12
71573;BME280;59408;51.032;9.410;2022-07-11T08:02:32;99710.09;;;14.56;90.18
71573;BME280;59408;51.032;9.410;2022-07-11T08:05:02;99716.38;;;14.45;91.09
71573;BME280;59408;51.032;9.410;2022-07-11T08:07:28;99709.03;;;14.49;90.50
71573;BME280;59408;51.032;9.410;2022-07-11T08:09:55;99712.31;;;14.66;91.73
71573;BME280;59408;51.032;9.410;2022-07-11T08:12:21;99716.72;;;14.83;90.18
71573;BME280;59408;51.032;9.410;2022-07-11T08:14:48;99707.66;;;15.11;90.50
71573;BME280;59408;51.032;9.410;2022-07-11T08:17:21;99711.91;;;15.24;91.02
71573;BME280;59408;51.032;9.410;2022-07-11T08:19:48;99719.84;;;14.97;89.52
71573;BME280;59408;51.032;9.410;2022-07-11T08:22:14;99710.03;;;15.12;90.33
71573;BME280;59408;51.032;9.410;2022-07-11T08:24:41;99715.53;;;15.12;88.86
71573;BME280;59408;51.032;9.410;2022-07-11T08:27:07;99720.69;;;15.14;88.94
71573;BME280;59408;51.032;9.410;2022-07-11T08:29:54;99710.31;;;15.07;88.33
71573;BME280;59408;51.032;9.410;2022-07-11T08:32:22;99718.28;;;15.12;88.63
71573;BME280;59408;51.032;9.410;2022-07-11T08:34:49;99717.22;;;15.17;89.91
71573;BME280;59408;51.032;9.410;2022-07-11T08:37:15;99722.38;;;15.34;89.61
71573;BME280;59408;51.032;9.410;2022-07-11T08:39:42;99719.91;;;15.44;88.99
71573;BME280;59408;51.032;9.410;2022-07-11T08:42:16;99722.75;;;15.48;88.70
71573;BME280;59408;51.032;9.410;2022-07-11T08:44:45;99723.09;;;15.31;86.88
71573;BME280;59408;51.032;9.410;2022-07-11T08:47:11;99724.25;;;15.30;88.22
71573;BME280;59408;51.032;9.410;2022-07-11T08:49:41;99720.53;;;15.38;87.77
71573;BME280;59408;51.032;9.410;2022-07-11T08:52:08;99715.28;;;15.48;87.63
71573;BME280;59408;51.032;9.410;2022-07-11T08:54:35;99709.72;;;15.61;87.67
71573;BME280;59408;51.032;9.410;2022-07-11T08:57:03;99712.84;;;15.75;87.12
71573;BME280;59408;51.032;9.410;2022-07-11T08:59:31;99710.44;;;15.73;85.80
71573;BME280;59408;51.032;9.410;2022-07-11T09:02:02;99714.34;;;15.72;87.14
71573;BME280;59408;51.032;9.410;2022-07-11T09:04:29;99709.63;;;15.89;87.09
71573;BME280;59408;51.032;9.410;2022-07-11T09:07:02;99708.81;;;15.88;86.77
71573;BME280;59408;51.032;9.410;2022-07-11T09:09:30;99716.31;;;15.72;85.95
71573;BME280;59408;51.032;9.410;2022-07-11T09:11:58;99714.19;;;15.65;86.38
71573;BME280;59408;51.032;9.410;2022-07-11T09:14:26;99713.34;;;15.49;87.01
71573;BME280;59408;51.032;9.410;2022-07-11T09:16:56;99716.19;;;15.37;86.98
71573;BME280;59408;51.032;9.410;2022-07-11T09:19:24;99716.00;;;15.30;86.96
71573;BME280;59408;51.032;9.410;2022-07-11T09:22:03;99720.84;;;15.21;88.80
71573;BME280;59408;51.032;9.410;2022-07-11T09:24:35;99723.78;;;15.12;89.20
71573;BME280;59408;51.032;9.410;2022-07-11T09:27:10;99715.63;;;15.00;89.43
71573;BME280;59408;51.032;9.410;2022-07-11T09:29:37;99719.50;;;14.99;89.98
71573;BME280;59408;51.032;9.410;2022-07-11T09:32:04;99718.94;;;14.93;89.64
71573;BME280;59408;51.032;9.410;2022-07-11T09:34:31;99716.88;;;14.75;91.22
71573;BME280;59408;51.032;9.410;2022-07-11T09:36:57;99720.97;;;14.81;91.89
71573;BME280;59408;51.032;9.410;2022-07-11T09:39:27;99720.72;;;14.86;93.28
71573;BME280;59408;51.032;9.410;2022-07-11T09:41:55;99716.91;;;14.90;92.65
71573;BME280;59408;51.032;9.410;2022-07-11T09:44:23;99716.00;;;14.86;92.66
71573;BME280;59408;51.032;9.410;2022-07-11T09:46:51;99717.25;;;14.89;92.28
71573;BME280;59408;51.032;9.410;2022-07-11T09:49:29;99719.09;;;14.85;92.17
71573;BME280;59408;51.032;9.410;2022-07-11T09:52:06;99723.44;;;14.86;93.47
71573;BME280;59408;51.032;9.410;2022-07-11T09:54:51;99722.22;;;14.83;93.06
71573;BME280;59408;51.032;9.410;2022-07-11T09:57:18;99731.28;;;14.84;92.19
71573;BME280;59408;51.032;9.410;2022-07-11T09:59:54;99728.53;;;14.84;91.55
71573;BME280;59408;51.032;9.410;2022-07-11T10:02:21;99731.34;;;14.87;92.38
71573;BME280;59408;51.032;9.410;2022-07-11T10:04:49;99738.25;;;14.81;91.40
71573;BME280;59408;51.032;9.410;2022-07-11T10:07:16;99738.34;;;14.85;92.09
71573;BME280;59408;51.032;9.410;2022-07-11T10:09:44;99734.00;;;14.84;89.72
71573;BME280;59408;51.032;9.410;2022-07-11T10:12:11;99738.56;;;14.92;89.38
71573;BME280;59408;51.032;9.410;2022-07-11T10:14:38;99739.09;;;14.97;88.66
71573;BME280;59408;51.032;9.410;2022-07-11T10:17:11;99739.38;;;15.08;90.49
71573;BME280;59408;51.032;9.410;2022-07-11T10:19:46;99741.44;;;15.11;88.67
71573;BME280;59408;51.032;9.410;2022-07-11T10:22:26;99738.59;;;15.07;90.71
71573;BME280;59408;51.032;9.410;2022-07-11T10:24:58;99743.66;;;14.93;89.12
71573;BME280;59408;51.032;9.410;2022-07-11T10:27:30;99746.84;;;14.80;89.20
71573;BME280;59408;51.032;9.410;2022-07-11T10:30:07;99757.81;;;14.80;91.10
71573;BME280;59408;51.032;9.410;2022-07-11T10:32:57;99751.25;;;14.84;92.25
71573;BME280;59408;51.032;9.410;2022-07-11T10:35:24;99744.53;;;14.82;90.39
71573;BME280;59408;51.032;9.410;2022-07-11T10:37:55;99756.22;;;14.79;90.24
71573;BME280;59408;51.032;9.410;2022-07-11T10:40:41;99757.19;;;14.98;89.79
71573;BME280;59408;51.032;9.410;2022-07-11T10:43:08;99765.59;;;15.05;89.15
71573;BME280;59408;51.032;9.410;2022-07-11T10:45:55;99766.66;;;15.29;88.29
71573;BME280;59408;51.032;9.410;2022-07-11T10:48:23;99766.66;;;15.29;88.64
71573;BME280;59408;51.032;9.410;2022-07-11T10:51:00;99773.25;;;15.56;88.39
71573;BME280;59408;51.032;9.410;2022-07-11T10:53:32;99774.94;;;15.92;86.84
71573;BME280;59408;51.032;9.410;2022-07-11T10:56:07;99776.50;;;16.24;87.61
71573;BME280;59408;51.032;9.410;2022-07-11T10:59:03;99777.09;;;16.33;85.83
71573;BME280;59408;51.032;9.410;2022-07-11T11:01:33;99770.44;;;16.34;86.30
71573;BME280;59408;51.032;9.410;2022-07-11T11:07:03;99777.59;;;16.19;83.19
71573;BME280;59408;51.032;9.410;2022-07-11T11:09:36;99777.59;;;16.04;84.23
71573;BME280;59408;51.032;9.410;2022-07-11T11:12:05;99776.88;;;16.07;84.39
71573;BME280;59408;51.032;9.410;2022-07-11T11:14:32;99782.47;;;16.10;83.50
71573;BME280;59408;51.032;9.410;2022-07-11T11:19:58;99768.34;;;16.12;85.18
71573;BME280;59408;51.032;9.410;2022-07-11T11:22:25;99766.53;;;16.35;82.20
71573;BME280;59408;51.032;9.410;2022-07-11T11:24:53;99770.16;;;16.58;81.72
71573;BME280;59408;51.032;9.410;2022-07-11T11:28:00;99774.69;;;16.67;81.63
71573;BME280;59408;51.032;9.410;2022-07-11T11:30:26;99781.31;;;16.62;80.63
71573;BME280;59408;51.032;9.410;2022-07-11T11:32:53;99774.16;;;16.61;80.31
71573;BME280;59408;51.032;9.410;2022-07-11T11:35:20;99773.13;;;16.50;81.84
71573;BME280;59408;51.032;9.410;2022-07-11T11:37:56;99767.97;;;16.48;81.49
71573;BME280;59408;51.032;9.410;2022-07-11T11:40:22;99770.44;;;16.88;82.19
71573;BME280;59408;51.032;9.410;2022-07-11T11:42:50;99763.97;;;17.61;81.95
71573;BME280;59408;51.032;9.410;2022-07-11T11:45:18;99765.16;;;18.39;79.52
71573;BME280;59408;51.032;9.410;2022-07-11T11:47:47;99774.91;;;18.86;77.49
71573;BME280;59408;51.032;9.410;2022-07-11T11:50:14;99765.41;;;18.54;72.75
71573;BME280;59408;51.032;9.410;2022-07-11T11:52:41;99766.72;;;18.63;71.09
71573;BME280;59408;51.032;9.410;2022-07-11T11:55:08;99763.91;;;18.33;75.17
71573;BME280;59408;51.032;9.410;2022-07-11T11:57:35;99764.44;;;18.42;72.23
71573;BME280;59408;51.032;9.410;2022-07-11T12:00:04;99774.53;;;18.58;73.17
71573;BME280;59408;51.032;9.410;2022-07-11T12:02:30;99774.31;;;18.17;75.60
71573;BME280;59408;51.032;9.410;2022-07-11T12:04:58;99775.00;;;17.84;73.57
71573;BME280;59408;51.032;9.410;2022-07-11T12:07:26;99781.75;;;17.45;74.65
71573;BME280;59408;51.032;9.410;2022-07-11T12:09:54;99775.88;;;17.46;76.46
71573;BME280;59408;51.032;9.410;2022-07-11T12:12:23;99777.50;;;17.47;76.19
71573;BME280;59408;51.032;9.410;2022-07-11T12:14:50;99776.94;;;17.38;77.29
71573;BME280;59408;51.032;9.410;2022-07-11T12:17:24;99770.47;;;17.30;77.53
71573;BME280;59408;51.032;9.410;2022-07-11T12:19:50;99770.34;;;17.04;77.11
71573;BME280;59408;51.032;9.410;2022-07-11T12:22:17;99767.09;;;16.99;78.84
71573;BME280;59408;51.032;9.410;2022-07-11T12:24:46;99770.13;;;17.13;79.78
71573;BME280;59408;51.032;9.410;2022-07-11T12:27:17;99775.94;;;17.08;78.00
71573;BME280;59408;51.032;9.410;2022-07-11T12:29:43;99787.47;;;16.94;78.60
71573;BME280;59408;51.032;9.410;2022-07-11T12:32:11;99780.59;;;16.84;77.24
71573;BME280;59408;51.032;9.410;2022-07-11T12:34:43;99774.16;;;16.61;78.60
71573;BME280;59408;51.032;9.410;2022-07-11T12:37:11;99774.97;;;16.62;80.65
71573;BME280;59408;51.032;9.410;2022-07-11T12:39:45;99781.97;;;16.75;79.74
71573;BME280;59408;51.032;9.410;2022-07-11T12:42:22;99778.63;;;16.85;79.32
71573;BME280;59408;51.032;9.410;2022-07-11T12:44:55;99780.75;;;16.91;79.29
71573;BME280;59408;51.032;9.410;2022-07-11T12:47:23;99778.97;;;17.22;78.05
71573;BME280;59408;51.032;9.410;2022-07-11T12:49:52;99770.66;;;17.18;76.88
71573;BME280;59408;51.032;9.410;2022-07-11T12:52:18;99780.16;;;17.44;78.10
71573;BME280;59408;51.032;9.410;2022-07-11T12:54:45;99769.66;;;17.72;79.32
71573;BME280;59408;51.032;9.410;2022-07-11T12:57:15;99776.31;;;17.94;75.53
71573;BME280;59408;51.032;9.410;2022-07-11T12:59:42;99775.91;;;17.69;74.55
71573;BME280;59408;51.032;9.410;2022-07-11T13:02:10;99771.38;;;17.57;74.60
71573;BME280;59408;51.032;9.410;2022-07-11T13:04:39;99765.78;;;17.77;76.41
71573;BME280;59408;51.032;9.410;2022-07-11T13:07:27;99768.97;;;18.01;74.32
71573;BME280;59408;51.032;9.410;2022-07-11T13:09:55;99767.63;;;18.18;76.50